sensor_id;sensor_type;location;lat;lon;timestamp;P1;durP1;ratioP1;P2;durP2;ratioP2
9260;SDS011;4667;42.726;23.252;2023-06-14T07:45:23;9.35;;;5.93;;
9260;SDS011;4667;42.726;23.252;2023-06-14T07:47:50;7.60;;;5.60;;
9260;SDS011;4667;42.726;23.252;2023-06-14T07:50:17;7.68;;;6.00;;
9260;SDS011;4667;42.726;23.252;2023-06-14T08:05:03;10.18;;;7.38;;
9260;SDS011;4667;42.726;23.252;2023-06-14T08:07:46;12.88;;;9.65;;
9260;SDS011;4667;42.726;23.252;2023-06-14T08:10:17;9.80;;;5.82;;
9260;SDS011;4667;42.726;23.252;2023-06-14T08:12:58;12.30;;;7.00;;
9260;SDS011;4667;42.726;23.252;2023-06-14T08:15:25;12.27;;;6.60;;
9260;SDS011;4667;42.726;23.252;2023-06-14T08:18:06;9.32;;;6.80;;
9260;SDS011;4667;42.726;23.252;2023-06-14T08:23:46;9.73;;;7.32;;
9260;SDS011;4667;42.726;23.252;2023-06-14T08:26:13;9.63;;;6.22;;
9260;SDS011;4667;42.726;23.252;2023-06-14T08:48:15;10.70;;;6.43;;
9260;SDS011;4667;42.726;23.252;2023-06-14T08:50:47;7.72;;;6.15;;
9260;SDS011;4667;42.726;23.252;2023-06-14T08:53:16;8.40;;;5.82;;
9260;SDS011;4667;42.726;23.252;2023-06-14T08:55:45;9.00;;;6.43;;
9260;SDS011;4667;42.726;23.252;2023-06-14T08:58:13;8.10;;;6.03;;
9260;SDS011;4667;42.726;23.252;2023-06-14T09:00:40;10.23;;;6.75;;
9260;SDS011;4667;42.726;23.252;2023-06-14T09:03:09;10.82;;;6.72;;
9260;SDS011;4667;42.726;23.252;2023-06-14T09:05:42;6.40;;;5.60;;
9260;SDS011;4667;42.726;23.252;2023-06-14T09:08:11;8.07;;;5.75;;
9260;SDS011;4667;42.726;23.252;2023-06-14T09:10:52;8.13;;;5.57;;
9260;SDS011;4667;42.726;23.252;2023-06-14T09:13:32;9.38;;;5.72;;
9260;SDS011;4667;42.726;23.252;2023-06-14T09:16:05;10.95;;;6.25;;
9260;SDS011;4667;42.726;23.252;2023-06-14T09:18:38;10.15;;;5.80;;
9260;SDS011;4667;42.726;23.252;2023-06-14T09:38:36;12.77;;;7.65;;
9260;SDS011;4667;42.726;23.252;2023-06-14T09:41:03;12.13;;;7.75;;
9260;SDS011;4667;42.726;23.252;2023-06-14T09:43:32;8.18;;;6.45;;
9260;SDS011;4667;42.726;23.252;2023-06-14T09:46:00;15.80;;;10.25;;
9260;SDS011;4667;42.726;23.252;2023-06-14T09:48:29;7.00;;;5.88;;
9260;SDS011;4667;42.726;23.252;2023-06-14T09:51:07;7.00;;;5.40;;
9260;SDS011;4667;42.726;23.252;2023-06-14T09:53:41;6.53;;;5.55;;
9260;SDS011;4667;42.726;23.252;2023-06-14T09:56:25;6.80;;;5.80;;
9260;SDS011;4667;42.726;23.252;2023-06-14T09:59:05;9.02;;;6.22;;
9260;SDS011;4667;42.726;23.252;2023-06-14T10:01:36;6.97;;;5.60;;
9260;SDS011;4667;42.726;23.252;2023-06-14T10:04:09;7.10;;;5.40;;
9260;SDS011;4667;42.726;23.252;2023-06-14T10:06:36;5.95;;;4.97;;
9260;SDS011;4667;42.726;23.252;2023-06-14T10:09:14;7.72;;;5.15;;
9260;SDS011;4667;42.726;23.252;2023-06-14T10:11:42;11.65;;;7.85;;
9260;SDS011;4667;42.726;23.252;2023-06-14T10:14:10;7.65;;;5.45;;
9260;SDS011;4667;42.726;23.252;2023-06-14T10:16:42;7.47;;;5.60;;
9260;SDS011;4667;42.726;23.252;2023-06-14T10:19:17;10.05;;;6.03;;
9260;SDS011;4667;42.726;23.252;2023-06-14T10:24:30;7.32;;;6.05;;
9260;SDS011;4667;42.726;23.252;2023-06-14T10:27:01;7.93;;;5.22;;
9260;SDS011;4667;42.726;23.252;2023-06-14T10:29:31;8.45;;;5.68;;
9260;SDS011;4667;42.726;23.252;2023-06-14T10:32:34;7.03;;;5.97;;
9260;SDS011;4667;42.726;23.252;2023-06-14T10:35:05;8.48;;;5.25;;
9260;SDS011;4667;42.726;23.252;2023-06-14T10:37:36;8.07;;;6.15;;
9260;SDS011;4667;42.726;23.252;2023-06-14T10:40:30;5.53;;;4.80;;
9260;SDS011;4667;42.726;23.252;2023-06-14T10:42:58;6.40;;;4.95;;
9260;SDS011;4667;42.726;23.252;2023-06-14T10:45:27;6.22;;;5.38;;
9260;SDS011;4667;42.726;23.252;2023-06-14T10:55:48;8.40;;;5.70;;
9260;SDS011;4667;42.726;23.252;2023-06-14T11:00:50;6.25;;;5.38;;
9260;SDS011;4667;42.726;23.252;2023-06-14T11:06:12;7.63;;;5.47;;
9260;SDS011;4667;42.726;23.252;2023-06-14T11:12:04;8.40;;;5.15;;
9260;SDS011;4667;42.726;23.252;2023-06-14T11:14:45;8.93;;;5.85;;
9260;SDS011;4667;42.726;23.252;2023-06-14T11:17:15;7.38;;;5.75;;
9260;SDS011;4667;42.726;23.252;2023-06-14T11:19:42;8.02;;;5.25;;
9260;SDS011;4667;42.726;23.252;2023-06-14T11:22:14;6.13;;;5.13;;
9260;SDS011;4667;42.726;23.252;2023-06-14T11:24:42;8.43;;;5.70;;
9260;SDS011;4667;42.726;23.252;2023-06-14T11:27:10;6.18;;;5.03;;
9260;SDS011;4667;42.726;23.252;2023-06-14T11:29:37;6.32;;;5.32;;
9260;SDS011;4667;42.726;23.252;2023-06-14T11:32:06;9.68;;;6.72;;
9260;SDS011;4667;42.726;23.252;2023-06-14T11:34:37;6.75;;;5.03;;
9260;SDS011;4667;42.726;23.252;2023-06-14T11:37:04;9.35;;;6.13;;
9260;SDS011;4667;42.726;23.252;2023-06-14T11:39:30;9.40;;;5.55;;
9260;SDS011;4667;42.726;23.252;2023-06-14T11:41:57;8.77;;;5.95;;
9260;SDS011;4667;42.726;23.252;2023-06-14T11:44:27;6.93;;;5.18;;
9260;SDS011;4667;42.726;23.252;2023-06-14T11:46:54;7.53;;;5.28;;
9260;SDS011;4667;42.726;23.252;2023-06-14T11:49:23;9.15;;;6.15;;
9260;SDS011;4667;42.726;23.252;2023-06-14T11:51:50;9.05;;;6.32;;
9260;SDS011;4667;42.726;23.252;2023-06-14T11:54:17;6.90;;;6.07;;
9260;SDS011;4667;42.726;23.252;2023-06-14T11:56:43;5.97;;;5.30;;
9260;SDS011;4667;42.726;23.252;2023-06-14T11:59:10;7.70;;;6.03;;
9260;SDS011;4667;42.726;23.252;2023-06-14T12:01:42;7.85;;;5.85;;
9260;SDS011;4667;42.726;23.252;2023-06-14T12:04:10;6.25;;;5.25;;
9260;SDS011;4667;42.726;23.252;2023-06-14T12:06:37;7.38;;;5.13;;
9260;SDS011;4667;42.726;23.252;2023-06-14T12:09:04;5.65;;;4.50;;
9260;SDS011;4667;42.726;23.252;2023-06-14T12:11:37;8.05;;;5.63;;
9260;SDS011;4667;42.726;23.252;2023-06-14T12:14:05;9.10;;;5.57;;
9260;SDS011;4667;42.726;23.252;2023-06-14T12:16:33;5.82;;;4.78;;
9260;SDS011;4667;42.726;23.252;2023-06-14T12:19:07;5.47;;;4.68;;
9260;SDS011;4667;42.726;23.252;2023-06-14T12:21:36;6.10;;;4.15;;
9260;SDS011;4667;42.726;23.252;2023-06-14T12:24:05;5.63;;;5.03;;
9260;SDS011;4667;42.726;23.252;2023-06-14T12:26:33;5.97;;;4.85;;
9260;SDS011;4667;42.726;23.252;2023-06-14T12:29:00;5.68;;;4.60;;
9260;SDS011;4667;42.726;23.252;2023-06-14T12:31:27;6.15;;;5.22;;
9260;SDS011;4667;42.726;23.252;2023-06-14T12:33:54;7.18;;;4.13;;
9260;SDS011;4667;42.726;23.252;2023-06-14T12:36:22;6.63;;;5.05;;
9260;SDS011;4667;42.726;23.252;2023-06-14T12:38:49;7.68;;;4.72;;
9260;SDS011;4667;42.726;23.252;2023-06-14T12:41:18;4.93;;;4.38;;
9260;SDS011;4667;42.726;23.252;2023-06-14T12:43:46;5.00;;;4.13;;
9260;SDS011;4667;42.726;23.252;2023-06-14T12:46:12;6.05;;;4.32;;
9260;SDS011;4667;42.726;23.252;2023-06-14T12:48:39;5.85;;;4.30;;
9260;SDS011;4667;42.726;23.252;2023-06-14T12:51:05;5.50;;;4.03;;
9260;SDS011;4667;42.726;23.252;2023-06-14T12:53:33;6.65;;;4.50;;
9260;SDS011;4667;42.726;23.252;2023-06-14T12:56:00;6.45;;;4.60;;
9260;SDS011;4667;42.726;23.252;2023-06-14T12:58:27;4.78;;;4.25;;
9260;SDS011;4667;42.726;23.252;2023-06-14T13:00:53;5.57;;;4.47;;
9260;SDS011;4667;42.726;23.252;2023-06-14T13:03:20;6.13;;;4.47;;
9260;SDS011;4667;42.726;23.252;2023-06-14T13:05:47;4.63;;;3.63;;
9260;SDS011;4667;42.726;23.252;2023-06-14T13:08:13;5.55;;;4.43;;
9260;SDS011;4667;42.726;23.252;2023-06-14T13:10:41;5.63;;;4.35;;
9260;SDS011;4667;42.726;23.252;2023-06-14T13:13:08;6.43;;;4.50;;
9260;SDS011;4667;42.726;23.252;2023-06-14T13:15:37;5.32;;;4.43;;
9260;SDS011;4667;42.726;23.252;2023-06-14T13:18:04;7.07;;;4.88;;
9260;SDS011;4667;42.726;23.252;2023-06-14T13:20:31;5.13;;;4.07;;
9260;SDS011;4667;42.726;23.252;2023-06-14T13:22:58;5.68;;;3.75;;
9260;SDS011;4667;42.726;23.252;2023-06-14T13:25:27;6.07;;;4.57;;
9260;SDS011;4667;42.726;23.252;2023-06-14T13:27:55;6.15;;;3.75;;
9260;SDS011;4667;42.726;23.252;2023-06-14T13:30:21;5.28;;;4.22;;
9260;SDS011;4667;42.726;23.252;2023-06-14T13:32:48;4.82;;;3.63;;
9260;SDS011;4667;42.726;23.252;2023-06-14T13:35:17;6.03;;;4.13;;
9260;SDS011;4667;42.726;23.252;2023-06-14T13:37:44;6.80;;;3.78;;
9260;SDS011;4667;42.726;23.252;2023-06-14T13:40:11;4.20;;;3.65;;
9260;SDS011;4667;42.726;23.252;2023-06-14T13:42:38;7.43;;;4.43;;
9260;SDS011;4667;42.726;23.252;2023-06-14T13:45:07;6.00;;;4.07;;
9260;SDS011;4667;42.726;23.252;2023-06-14T13:47:34;4.22;;;3.60;;
9260;SDS011;4667;42.726;23.252;2023-06-14T13:50:01;4.88;;;3.70;;
9260;SDS011;4667;42.726;23.252;2023-06-14T13:52:28;6.13;;;4.05;;
9260;SDS011;4667;42.726;23.252;2023-06-14T13:54:55;6.75;;;5.07;;
9260;SDS011;4667;42.726;23.252;2023-06-14T13:57:22;6.85;;;4.40;;
9260;SDS011;4667;42.726;23.252;2023-06-14T13:59:49;5.45;;;4.13;;
9260;SDS011;4667;42.726;23.252;2023-06-14T14:02:17;5.60;;;4.28;;
9260;SDS011;4667;42.726;23.252;2023-06-14T14:04:43;6.90;;;4.53;;
9260;SDS011;4667;42.726;23.252;2023-06-14T14:07:16;7.28;;;5.10;;
9260;SDS011;4667;42.726;23.252;2023-06-14T14:09:43;5.68;;;4.18;;
9260;SDS011;4667;42.726;23.252;2023-06-14T14:12:10;8.68;;;4.78;;
9260;SDS011;4667;42.726;23.252;2023-06-14T14:14:37;7.05;;;4.95;;
9260;SDS011;4667;42.726;23.252;2023-06-14T14:17:03;6.43;;;4.25;;
9260;SDS011;4667;42.726;23.252;2023-06-14T14:19:33;5.68;;;4.32;;
9260;SDS011;4667;42.726;23.252;2023-06-14T14:21:59;6.93;;;4.40;;
9260;SDS011;4667;42.726;23.252;2023-06-14T14:24:26;8.35;;;6.10;;
9260;SDS011;4667;42.726;23.252;2023-06-14T14:26:53;8.15;;;5.35;;
9260;SDS011;4667;42.726;23.252;2023-06-14T14:29:21;7.25;;;4.85;;
9260;SDS011;4667;42.726;23.252;2023-06-14T14:31:48;6.25;;;4.70;;
9260;SDS011;4667;42.726;23.252;2023-06-14T14:34:15;8.13;;;5.00;;
9260;SDS011;4667;42.726;23.252;2023-06-14T14:36:43;7.28;;;4.78;;
9260;SDS011;4667;42.726;23.252;2023-06-14T14:39:10;5.72;;;4.20;;
9260;SDS011;4667;42.726;23.252;2023-06-14T14:41:36;6.32;;;4.80;;
9260;SDS011;4667;42.726;23.252;2023-06-14T14:44:05;6.85;;;4.40;;
9260;SDS011;4667;42.726;23.252;2023-06-14T14:46:32;6.97;;;5.03;;
9260;SDS011;4667;42.726;23.252;2023-06-14T14:48:59;6.50;;;5.13;;
9260;SDS011;4667;42.726;23.252;2023-06-14T14:51:26;8.45;;;5.82;;
9260;SDS011;4667;42.726;23.252;2023-06-14T14:53:54;7.55;;;5.32;;
9260;SDS011;4667;42.726;23.252;2023-06-14T14:56:22;6.30;;;4.75;;
9260;SDS011;4667;42.726;23.252;2023-06-14T14:58:48;5.60;;;4.45;;
9260;SDS011;4667;42.726;23.252;2023-06-14T15:01:15;6.60;;;4.68;;
9260;SDS011;4667;42.726;23.252;2023-06-14T15:03:42;7.93;;;4.28;;
9260;SDS011;4667;42.726;23.252;2023-06-14T15:06:09;7.43;;;4.40;;
9260;SDS011;4667;42.726;23.252;2023-06-14T15:08:36;5.97;;;4.57;;
9260;SDS011;4667;42.726;23.252;2023-06-14T15:11:04;6.18;;;4.90;;
9260;SDS011;4667;42.726;23.252;2023-06-14T15:13:31;5.78;;;4.40;;
9260;SDS011;4667;42.726;23.252;2023-06-14T15:15:58;7.00;;;4.55;;
9260;SDS011;4667;42.726;23.252;2023-06-14T15:18:25;3.92;;;3.00;;
9260;SDS011;4667;42.726;23.252;2023-06-14T15:20:52;7.53;;;4.82;;
9260;SDS011;4667;42.726;23.252;2023-06-14T15:23:19;5.70;;;3.45;;
9260;SDS011;4667;42.726;23.252;2023-06-14T15:25:47;5.30;;;4.20;;
9260;SDS011;4667;42.726;23.252;2023-06-14T15:28:15;4.90;;;3.58;;
9260;SDS011;4667;42.726;23.252;2023-06-14T15:30:42;7.13;;;4.10;;
9260;SDS011;4667;42.726;23.252;2023-06-14T15:33:09;4.25;;;3.75;;
9260;SDS011;4667;42.726;23.252;2023-06-14T15:35:35;5.38;;;3.50;;
9260;SDS011;4667;42.726;23.252;2023-06-14T15:38:02;10.63;;;3.78;;
9260;SDS011;4667;42.726;23.252;2023-06-14T15:40:29;6.35;;;3.70;;
9260;SDS011;4667;42.726;23.252;2023-06-14T15:42:56;4.45;;;3.30;;
9260;SDS011;4667;42.726;23.252;2023-06-14T15:45:24;5.32;;;3.58;;
9260;SDS011;4667;42.726;23.252;2023-06-14T15:47:51;5.85;;;4.13;;
9260;SDS011;4667;42.726;23.252;2023-06-14T15:50:18;6.85;;;3.42;;
9260;SDS011;4667;42.726;23.252;2023-06-14T15:52:45;6.15;;;4.63;;
9260;SDS011;4667;42.726;23.252;2023-06-14T15:55:11;5.30;;;4.10;;
9260;SDS011;4667;42.726;23.252;2023-06-14T15:57:38;4.97;;;4.10;;
9260;SDS011;4667;42.726;23.252;2023-06-14T16:00:06;4.32;;;3.47;;
9260;SDS011;4667;42.726;23.252;2023-06-14T16:03:06;5.80;;;4.25;;
9260;SDS011;4667;42.726;23.252;2023-06-14T16:08:22;8.25;;;4.28;;
9260;SDS011;4667;42.726;23.252;2023-06-14T16:11:06;6.13;;;4.20;;
9260;SDS011;4667;42.726;23.252;2023-06-14T16:13:33;7.10;;;4.78;;
9260;SDS011;4667;42.726;23.252;2023-06-14T16:16:01;5.80;;;4.50;;
9260;SDS011;4667;42.726;23.252;2023-06-14T16:18:32;8.90;;;5.05;;
9260;SDS011;4667;42.726;23.252;2023-06-14T16:20:59;7.53;;;4.68;;
9260;SDS011;4667;42.726;23.252;2023-06-14T16:23:29;6.25;;;4.25;;
9260;SDS011;4667;42.726;23.252;2023-06-14T16:25:56;7.40;;;3.88;;
9260;SDS011;4667;42.726;23.252;2023-06-14T16:28:24;6.78;;;4.05;;
9260;SDS011;4667;42.726;23.252;2023-06-14T16:30:50;5.43;;;3.95;;
9260;SDS011;4667;42.726;23.252;2023-06-14T16:33:17;6.13;;;4.57;;
9260;SDS011;4667;42.726;23.252;2023-06-14T16:35:48;5.68;;;4.75;;
9260;SDS011;4667;42.726;23.252;2023-06-14T16:38:14;8.90;;;5.03;;
9260;SDS011;4667;42.726;23.252;2023-06-14T16:40:41;5.70;;;4.07;;
9260;SDS011;4667;42.726;23.252;2023-06-14T16:43:08;6.50;;;4.25;;
9260;SDS011;4667;42.726;23.252;2023-06-14T16:45:35;5.82;;;4.50;;
9260;SDS011;4667;42.726;23.252;2023-06-14T16:48:01;6.15;;;4.20;;
9260;SDS011;4667;42.726;23.252;2023-06-14T16:50:28;8.45;;;4.68;;
9260;SDS011;4667;42.726;23.252;2023-06-14T16:52:57;6.25;;;4.15;;
9260;SDS011;4667;42.726;23.252;2023-06-14T16:55:24;5.53;;;4.22;;
9260;SDS011;4667;42.726;23.252;2023-06-14T16:57:50;7.28;;;4.93;;
9260;SDS011;4667;42.726;23.252;2023-06-14T17:00:18;5.45;;;4.00;;
9260;SDS011;4667;42.726;23.252;2023-06-14T17:02:45;5.55;;;4.20;;
9260;SDS011;4667;42.726;23.252;2023-06-14T17:05:25;7.78;;;4.00;;
9260;SDS011;4667;42.726;23.252;2023-06-14T17:07:53;8.23;;;3.90;;
9260;SDS011;4667;42.726;23.252;2023-06-14T17:10:23;5.57;;;4.35;;
9260;SDS011;4667;42.726;23.252;2023-06-14T17:12:52;8.48;;;4.43;;
9260;SDS011;4667;42.726;23.252;2023-06-14T17:15:19;5.55;;;4.07;;
9260;SDS011;4667;42.726;23.252;2023-06-14T17:17:47;5.07;;;3.95;;
9260;SDS011;4667;42.726;23.252;2023-06-14T17:20:19;5.97;;;4.68;;
9260;SDS011;4667;42.726;23.252;2023-06-14T17:22:48;5.90;;;4.20;;
9260;SDS011;4667;42.726;23.252;2023-06-14T17:25:16;5.68;;;4.00;;
9260;SDS011;4667;42.726;23.252;2023-06-14T17:27:59;5.45;;;3.60;;
9260;SDS011;4667;42.726;23.252;2023-06-14T17:30:28;5.30;;;3.80;;
9260;SDS011;4667;42.726;23.252;2023-06-14T17:32:55;6.90;;;4.00;;
9260;SDS011;4667;42.726;23.252;2023-06-14T17:35:23;7.43;;;4.00;;
9260;SDS011;4667;42.726;23.252;2023-06-14T17:37:53;5.03;;;4.22;;
9260;SDS011;4667;42.726;23.252;2023-06-14T17:40:20;8.48;;;4.07;;
9260;SDS011;4667;42.726;23.252;2023-06-14T17:42:48;6.78;;;3.90;;
9260;SDS011;4667;42.726;23.252;2023-06-14T17:45:20;4.53;;;3.60;;
9260;SDS011;4667;42.726;23.252;2023-06-14T17:47:47;6.57;;;4.35;;
9260;SDS011;4667;42.726;23.252;2023-06-14T17:50:15;5.57;;;4.20;;
9260;SDS011;4667;42.726;23.252;2023-06-14T17:52:42;5.88;;;3.97;;
9260;SDS011;4667;42.726;23.252;2023-06-14T17:55:09;5.82;;;3.95;;
9260;SDS011;4667;42.726;23.252;2023-06-14T17:57:35;6.93;;;4.38;;
9260;SDS011;4667;42.726;23.252;2023-06-14T18:00:03;5.93;;;4.32;;
9260;SDS011;4667;42.726;23.252;2023-06-14T18:02:33;5.75;;;3.97;;
9260;SDS011;4667;42.726;23.252;2023-06-14T18:05:00;4.63;;;3.33;;
9260;SDS011;4667;42.726;23.252;2023-06-14T18:07:29;5.05;;;3.80;;
9260;SDS011;4667;42.726;23.252;2023-06-14T18:09:56;5.43;;;3.53;;
9260;SDS011;4667;42.726;23.252;2023-06-14T18:12:23;5.10;;;3.13;;
9260;SDS011;4667;42.726;23.252;2023-06-14T18:14:50;3.72;;;3.05;;
9260;SDS011;4667;42.726;23.252;2023-06-14T18:17:17;4.75;;;3.15;;
9260;SDS011;4667;42.726;23.252;2023-06-14T18:19:45;5.15;;;3.35;;
9260;SDS011;4667;42.726;23.252;2023-06-14T18:22:12;4.97;;;3.75;;
9260;SDS011;4667;42.726;23.252;2023-06-14T18:24:39;4.25;;;3.63;;
9260;SDS011;4667;42.726;23.252;2023-06-14T18:27:06;9.25;;;3.38;;
9260;SDS011;4667;42.726;23.252;2023-06-14T18:29:36;5.85;;;3.50;;
9260;SDS011;4667;42.726;23.252;2023-06-14T18:32:03;7.38;;;3.67;;
9260;SDS011;4667;42.726;23.252;2023-06-14T18:34:30;5.13;;;3.47;;
9260;SDS011;4667;42.726;23.252;2023-06-14T18:36:58;4.32;;;3.22;;
9260;SDS011;4667;42.726;23.252;2023-06-14T18:39:25;3.75;;;3.45;;
9260;SDS011;4667;42.726;23.252;2023-06-14T18:41:53;5.47;;;3.60;;
9260;SDS011;4667;42.726;23.252;2023-06-14T18:44:20;6.05;;;3.13;;
9260;SDS011;4667;42.726;23.252;2023-06-14T18:46:47;4.88;;;3.40;;
9260;SDS011;4667;42.726;23.252;2023-06-14T18:49:14;4.03;;;3.35;;
9260;SDS011;4667;42.726;23.252;2023-06-14T18:51:42;6.95;;;3.47;;
9260;SDS011;4667;42.726;23.252;2023-06-14T18:54:11;4.13;;;3.40;;
9260;SDS011;4667;42.726;23.252;2023-06-14T18:56:42;4.30;;;3.05;;
9260;SDS011;4667;42.726;23.252;2023-06-14T18:59:11;3.47;;;2.70;;
9260;SDS011;4667;42.726;23.252;2023-06-14T19:01:39;3.25;;;2.80;;
9260;SDS011;4667;42.726;23.252;2023-06-14T19:04:05;3.38;;;2.60;;
9260;SDS011;4667;42.726;23.252;2023-06-14T19:06:32;4.22;;;3.13;;
9260;SDS011;4667;42.726;23.252;2023-06-14T19:09:08;4.63;;;3.22;;
9260;SDS011;4667;42.726;23.252;2023-06-14T19:11:36;5.57;;;2.42;;
9260;SDS011;4667;42.726;23.252;2023-06-14T19:14:05;4.60;;;3.47;;
9260;SDS011;4667;42.726;23.252;2023-06-14T19:16:32;4.35;;;3.35;;
9260;SDS011;4667;42.726;23.252;2023-06-14T19:18:59;5.40;;;3.45;;
9260;SDS011;4667;42.726;23.252;2023-06-14T19:21:25;6.35;;;3.60;;
9260;SDS011;4667;42.726;23.252;2023-06-14T19:23:52;4.53;;;3.10;;
9260;SDS011;4667;42.726;23.252;2023-06-14T19:26:21;6.65;;;3.50;;
9260;SDS011;4667;42.726;23.252;2023-06-14T19:28:51;4.05;;;3.03;;
9260;SDS011;4667;42.726;23.252;2023-06-14T19:31:19;3.63;;;3.30;;
9260;SDS011;4667;42.726;23.252;2023-06-14T19:33:46;5.65;;;3.05;;
9260;SDS011;4667;42.726;23.252;2023-06-14T19:36:14;4.50;;;2.85;;
9260;SDS011;4667;42.726;23.252;2023-06-14T19:38:42;6.22;;;2.83;;
9260;SDS011;4667;42.726;23.252;2023-06-14T19:41:08;6.10;;;2.90;;
9260;SDS011;4667;42.726;23.252;2023-06-14T19:43:35;4.28;;;3.47;;
9260;SDS011;4667;42.726;23.252;2023-06-14T19:46:03;3.90;;;2.33;;
9260;SDS011;4667;42.726;23.252;2023-06-14T19:48:30;4.70;;;2.83;;
9260;SDS011;4667;42.726;23.252;2023-06-14T19:50:57;3.95;;;2.60;;
9260;SDS011;4667;42.726;23.252;2023-06-14T19:53:24;3.42;;;2.63;;
9260;SDS011;4667;42.726;23.252;2023-06-14T19:55:50;2.97;;;2.58;;
9260;SDS011;4667;42.726;23.252;2023-06-14T19:58:17;6.03;;;2.83;;
9260;SDS011;4667;42.726;23.252;2023-06-14T20:00:46;2.78;;;2.13;;
9260;SDS011;4667;42.726;23.252;2023-06-14T20:03:14;2.80;;;2.13;;
9260;SDS011;4667;42.726;23.252;2023-06-14T20:05:41;3.00;;;2.15;;
9260;SDS011;4667;42.726;23.252;2023-06-14T20:08:08;3.30;;;1.77;;
9260;SDS011;4667;42.726;23.252;2023-06-14T20:10:35;2.28;;;1.67;;
9260;SDS011;4667;42.726;23.252;2023-06-14T20:13:01;3.53;;;2.03;;
9260;SDS011;4667;42.726;23.252;2023-06-14T20:15:30;4.20;;;2.10;;
9260;SDS011;4667;42.726;23.252;2023-06-14T20:17:58;3.97;;;2.00;;
9260;SDS011;4667;42.726;23.252;2023-06-14T20:20:26;2.50;;;1.80;;
9260;SDS011;4667;42.726;23.252;2023-06-14T20:22:53;3.55;;;2.15;;
9260;SDS011;4667;42.726;23.252;2023-06-14T20:25:19;2.25;;;1.77;;
9260;SDS011;4667;42.726;23.252;2023-06-14T20:30:18;3.67;;;2.65;;
9260;SDS011;4667;42.726;23.252;2023-06-14T20:32:44;5.25;;;2.53;;
9260;SDS011;4667;42.726;23.252;2023-06-14T20:35:14;3.08;;;2.53;;
9260;SDS011;4667;42.726;23.252;2023-06-14T20:37:43;3.33;;;2.70;;
9260;SDS011;4667;42.726;23.252;2023-06-14T20:40:18;3.83;;;2.25;;
9260;SDS011;4667;42.726;23.252;2023-06-14T20:42:45;2.22;;;2.03;;
9260;SDS011;4667;42.726;23.252;2023-06-14T20:45:13;2.20;;;2.00;;
9260;SDS011;4667;42.726;23.252;2023-06-14T20:47:40;2.58;;;2.38;;
9260;SDS011;4667;42.726;23.252;2023-06-14T20:50:07;3.40;;;2.63;;
9260;SDS011;4667;42.726;23.252;2023-06-14T20:52:36;2.47;;;2.10;;
9260;SDS011;4667;42.726;23.252;2023-06-14T20:55:05;2.67;;;2.13;;
9260;SDS011;4667;42.726;23.252;2023-06-14T20:57:32;3.10;;;2.15;;
9260;SDS011;4667;42.726;23.252;2023-06-14T21:00:00;3.42;;;2.47;;
9260;SDS011;4667;42.726;23.252;2023-06-14T21:02:35;2.08;;;1.80;;
9260;SDS011;4667;42.726;23.252;2023-06-14T21:05:01;2.65;;;2.08;;
9260;SDS011;4667;42.726;23.252;2023-06-14T21:07:28;2.70;;;1.80;;
9260;SDS011;4667;42.726;23.252;2023-06-14T21:09:55;2.80;;;2.15;;
9260;SDS011;4667;42.726;23.252;2023-06-14T21:12:23;2.50;;;2.10;;
9260;SDS011;4667;42.726;23.252;2023-06-14T21:14:50;3.58;;;2.55;;
9260;SDS011;4667;42.726;23.252;2023-06-14T21:17:17;1.97;;;1.73;;
9260;SDS011;4667;42.726;23.252;2023-06-14T21:19:43;2.60;;;2.00;;
9260;SDS011;4667;42.726;23.252;2023-06-14T21:22:10;2.40;;;1.63;;
9260;SDS011;4667;42.726;23.252;2023-06-14T21:24:37;3.03;;;2.08;;
9260;SDS011;4667;42.726;23.252;2023-06-14T21:27:04;3.20;;;2.30;;
9260;SDS011;4667;42.726;23.252;2023-06-14T21:29:33;3.57;;;2.60;;
9260;SDS011;4667;42.726;23.252;2023-06-14T21:32:00;4.03;;;2.43;;
9260;SDS011;4667;42.726;23.252;2023-06-14T21:34:26;2.40;;;2.10;;
9260;SDS011;4667;42.726;23.252;2023-06-14T21:36:53;2.80;;;2.17;;
9260;SDS011;4667;42.726;23.252;2023-06-14T21:39:20;6.57;;;3.20;;
9260;SDS011;4667;42.726;23.252;2023-06-14T21:41:47;4.43;;;2.90;;
9260;SDS011;4667;42.726;23.252;2023-06-14T21:44:13;6.17;;;3.90;;
9260;SDS011;4667;42.726;23.252;2023-06-14T21:46:42;4.60;;;3.50;;
9260;SDS011;4667;42.726;23.252;2023-06-14T21:49:08;5.37;;;4.00;;
9260;SDS011;4667;42.726;23.252;2023-06-14T21:51:35;5.93;;;3.97;;
9260;SDS011;4667;42.726;23.252;2023-06-14T21:54:02;5.30;;;4.13;;
9260;SDS011;4667;42.726;23.252;2023-06-14T21:56:29;6.80;;;4.00;;
9260;SDS011;4667;42.726;23.252;2023-06-14T21:58:56;7.23;;;4.07;;
9260;SDS011;4667;42.726;23.252;2023-06-14T22:01:22;6.13;;;3.97;;
9260;SDS011;4667;42.726;23.252;2023-06-14T22:03:50;4.93;;;3.90;;
9260;SDS011;4667;42.726;23.252;2023-06-14T22:06:17;5.90;;;3.53;;
9260;SDS011;4667;42.726;23.252;2023-06-14T22:08:44;5.17;;;3.57;;
9260;SDS011;4667;42.726;23.252;2023-06-14T22:11:11;5.63;;;3.70;;
9260;SDS011;4667;42.726;23.252;2023-06-14T22:13:38;5.20;;;3.87;;
9260;SDS011;4667;42.726;23.252;2023-06-14T22:16:08;4.73;;;3.53;;
9260;SDS011;4667;42.726;23.252;2023-06-14T22:18:35;5.63;;;3.97;;
9260;SDS011;4667;42.726;23.252;2023-06-14T22:21:04;6.90;;;4.03;;
9260;SDS011;4667;42.726;23.252;2023-06-14T22:23:31;5.00;;;3.93;;
9260;SDS011;4667;42.726;23.252;2023-06-14T22:26:02;5.33;;;4.10;;
9260;SDS011;4667;42.726;23.252;2023-06-14T22:28:30;4.80;;;3.77;;
9260;SDS011;4667;42.726;23.252;2023-06-14T22:31:03;4.93;;;3.60;;
9260;SDS011;4667;42.726;23.252;2023-06-14T22:33:33;5.37;;;3.53;;
9260;SDS011;4667;42.726;23.252;2023-06-14T22:36:08;5.03;;;3.50;;
9260;SDS011;4667;42.726;23.252;2023-06-14T22:38:36;4.03;;;3.43;;
9260;SDS011;4667;42.726;23.252;2023-06-14T22:41:04;5.23;;;3.90;;
9260;SDS011;4667;42.726;23.252;2023-06-14T22:43:33;6.87;;;3.60;;
9260;SDS011;4667;42.726;23.252;2023-06-14T22:46:02;8.17;;;4.23;;
9260;SDS011;4667;42.726;23.252;2023-06-14T22:48:32;6.13;;;4.07;;
9260;SDS011;4667;42.726;23.252;2023-06-14T22:51:11;6.50;;;4.43;;
9260;SDS011;4667;42.726;23.252;2023-06-14T22:53:39;6.97;;;4.73;;
9260;SDS011;4667;42.726;23.252;2023-06-14T22:56:06;5.73;;;3.90;;
9260;SDS011;4667;42.726;23.252;2023-06-14T22:58:34;9.17;;;4.50;;
9260;SDS011;4667;42.726;23.252;2023-06-14T23:01:04;4.23;;;3.77;;
9260;SDS011;4667;42.726;23.252;2023-06-14T23:03:33;11.40;;;4.47;;
9260;SDS011;4667;42.726;23.252;2023-06-14T23:06:01;6.90;;;4.57;;
9260;SDS011;4667;42.726;23.252;2023-06-14T23:08:29;6.07;;;5.27;;
9260;SDS011;4667;42.726;23.252;2023-06-14T23:10:57;5.63;;;4.33;;
9260;SDS011;4667;42.726;23.252;2023-06-14T23:13:26;6.30;;;4.63;;
9260;SDS011;4667;42.726;23.252;2023-06-14T23:15:53;7.40;;;4.87;;
9260;SDS011;4667;42.726;23.252;2023-06-14T23:18:20;9.43;;;5.43;;
9260;SDS011;4667;42.726;23.252;2023-06-14T23:20:48;7.27;;;4.93;;
9260;SDS011;4667;42.726;23.252;2023-06-14T23:23:15;9.70;;;5.13;;
9260;SDS011;4667;42.726;23.252;2023-06-14T23:25:43;8.23;;;5.37;;
9260;SDS011;4667;42.726;23.252;2023-06-14T23:28:10;8.57;;;5.97;;
9260;SDS011;4667;42.726;23.252;2023-06-14T23:30:42;6.80;;;5.33;;
9260;SDS011;4667;42.726;23.252;2023-06-14T23:33:10;7.07;;;5.37;;
9260;SDS011;4667;42.726;23.252;2023-06-14T23:35:38;12.00;;;5.20;;
9260;SDS011;4667;42.726;23.252;2023-06-14T23:38:05;8.17;;;6.23;;
9260;SDS011;4667;42.726;23.252;2023-06-14T23:40:37;7.50;;;5.60;;
9260;SDS011;4667;42.726;23.252;2023-06-14T23:43:05;6.87;;;5.23;;
9260;SDS011;4667;42.726;23.252;2023-06-14T23:45:32;7.80;;;5.63;;
9260;SDS011;4667;42.726;23.252;2023-06-14T23:48:00;6.93;;;5.43;;
9260;SDS011;4667;42.726;23.252;2023-06-14T23:50:26;7.37;;;5.57;;
9260;SDS011;4667;42.726;23.252;2023-06-14T23:52:53;8.63;;;6.07;;
9260;SDS011;4667;42.726;23.252;2023-06-14T23:55:24;10.27;;;6.40;;
9260;SDS011;4667;42.726;23.252;2023-06-14T23:57:52;8.23;;;6.00;;
